Time;durP1;ratioP1;P1;durP2;ratioP2;P2;SDS_P1;SDS_P2;PMS_P1;PMS_P2;Temp;Humidity;BMP_temperature;BMP_pressure;BME280_temperature;BME280_humidity;BME280_pressure;Samples;Min_cycle;Max_cycle;Signal;HPM_P1;HPM_P2
2021/06/14 11:50:24;;;;;;;902.20;839.90;;;23.40;99.90;;;;;;5147622;27;20520;-65
2021/06/14 11:53:04;;;;;;;919.67;857.10;;;23.50;99.90;;;;;;5130237;28;25062;-65
2021/06/14 11:55:31;;;;;;;896.92;837.00;;;23.60;99.90;;;;;;5131604;27;20169;-65
2021/06/14 11:57:59;;;;;;;911.72;850.80;;;23.70;99.90;;;;;;5131575;27;20185;-65
2021/06/14 12:00:39;;;;;;;870.58;813.50;;;23.80;99.90;;;;;;5131580;27;20638;-67
2021/06/14 12:03:24;;;;;;;816.72;764.72;;;23.90;99.90;;;;;;5131445;27;20180;-68
2021/06/14 12:05:55;;;;;;;860.05;804.28;;;23.90;99.90;;;;;;5131210;27;20496;-68
2021/06/14 12:08:22;;;;;;;901.15;840.95;;;23.90;99.90;;;;;;5131094;28;20194;-67
2021/06/14 12:10:51;;;;;;;893.97;834.95;;;24.00;99.90;;;;;;5131242;27;20165;-67
2021/06/14 12:13:18;;;;;;;908.78;848.20;;;24.00;99.90;;;;;;5129951;28;20166;-66
2021/06/14 12:15:52;;;;;;;882.80;824.92;;;24.10;99.90;;;;;;5131142;27;20166;-67
2021/06/14 12:18:19;;;;;;;934.78;871.22;;;24.10;99.90;;;;;;5129699;28;20188;-67
2021/06/14 12:20:55;;;;;;;878.92;822.15;;;24.30;99.90;;;;;;5131102;27;20177;-67
2021/06/14 12:23:21;;;;;;;919.90;858.60;;;24.30;99.90;;;;;;5131032;28;20235;-70
2021/06/14 12:25:51;;;;;;;887.90;830.30;;;24.40;99.90;;;;;;5130984;27;20174;-70
2021/06/14 12:28:20;;;;;;;854.70;799.78;;;24.50;99.90;;;;;;5130978;27;20194;-71
2021/06/14 12:30:59;;;;;;;857.05;802.20;;;24.50;99.90;;;;;;5130984;28;20154;-70
2021/06/14 12:33:26;;;;;;;849.35;795.17;;;24.50;99.90;;;;;;5131010;28;20161;-71
2021/06/14 12:35:54;;;;;;;878.88;822.03;;;24.50;99.90;;;;;;5130907;28;20746;-70
2021/06/14 12:38:19;;;;;;;918.13;857.00;;;24.60;99.90;;;;;;5130820;28;20170;-69
2021/06/14 12:40:45;;;;;;;868.90;813.40;;;24.80;99.90;;;;;;5130322;27;20166;-68
2021/06/14 12:43:12;;;;;;;902.33;843.67;;;25.00;99.90;;;;;;5130671;28;20162;-68
2021/06/14 12:45:39;;;;;;;945.50;881.50;;;25.10;99.90;;;;;;5130705;28;20162;-68
2021/06/14 12:48:11;;;;;;;822.13;770.88;;;25.30;99.90;;;;;;5130387;28;20627;-68
2021/06/14 12:50:48;;;;;;;839.08;786.33;;;25.40;99.90;;;;;;5130645;28;20200;-68
2021/06/14 12:53:18;;;;;;;892.75;834.60;;;25.40;99.90;;;;;;5130582;28;20166;-68
2021/06/14 12:55:45;;;;;;;817.42;766.35;;;25.50;99.90;;;;;;5130091;28;20165;-68
2021/06/14 12:58:23;;;;;;;873.70;817.58;;;25.40;99.90;;;;;;5130190;27;20226;-68
2021/06/14 13:01:02;;;;;;;916.40;855.92;;;25.40;99.90;;;;;;5121262;28;20582;-68
2021/06/14 13:03:32;;;;;;;881.70;824.95;;;25.50;99.90;;;;;;5116691;28;20219;-68
2021/06/14 13:05:58;;;;;;;842.40;789.20;;;25.80;99.90;;;;;;5116656;28;20215;-67
2021/06/14 13:08:37;;;;;;;827.20;775.47;;;25.90;99.90;;;;;;5116276;28;20548;-68
2021/06/14 13:11:03;;;;;;;888.97;830.95;;;25.90;99.90;;;;;;5116368;28;20162;-68
2021/06/14 13:13:40;;;;;;;887.97;829.35;;;26.10;99.90;;;;;;5116456;28;20169;-68
2021/06/14 13:16:07;;;;;;;899.00;839.38;;;26.30;99.90;;;;;;5116461;28;20162;-68
2021/06/14 13:18:33;;;;;;;843.28;788.80;;;26.40;99.90;;;;;;5116815;28;20174;-68
2021/06/14 13:21:09;;;;;;;756.20;709.45;;;26.60;99.90;;;;;;5116349;28;20167;-68
2021/06/14 13:23:45;;;;;;;813.53;761.85;;;26.70;99.90;;;;;;5116352;28;20239;-65
2021/06/14 13:26:11;;;;;;;798.28;747.70;;;26.80;99.90;;;;;;5116259;28;20162;-66
2021/06/14 13:28:41;;;;;;;790.75;740.53;;;26.90;99.90;;;;;;5116024;28;20578;-66
2021/06/14 13:31:21;;;;;;;743.55;697.33;;;27.10;99.90;;;;;;5116002;28;20176;-66
2021/06/14 13:36:39;;;;;;;816.17;763.20;;;27.20;99.90;;;;;;5116202;28;20167;-66
2021/06/14 13:39:13;;;;;;;879.78;820.13;;;27.40;99.90;;;;;;5115980;28;20173;-66
2021/06/14 13:41:40;;;;;;;853.00;796.22;;;27.60;99.90;;;;;;5115853;28;20163;-65
2021/06/14 13:44:20;;;;;;;762.92;714.90;;;27.90;99.90;;;;;;5116133;28;20177;-64
2021/06/14 13:46:52;;;;;;;782.22;732.20;;;28.10;99.90;;;;;;5115862;28;20193;-64
2021/06/14 13:49:44;;;;;;;738.38;692.05;;;28.30;99.90;;;;;;5115637;28;20237;-65
2021/06/14 13:52:12;;;;;;;643.70;605.28;;;28.60;99.90;;;;;;5111658;28;20651;-65
2021/06/14 13:54:40;;;;;;;624.72;587.92;;;28.60;99.90;;;;;;5115687;28;20242;-65
2021/06/14 13:57:14;;;;;;;731.63;685.80;;;28.60;99.90;;;;;;5115626;28;20698;-64
2021/06/14 13:59:40;;;;;;;760.13;711.60;;;28.70;99.90;;;;;;5115642;28;20166;-65
2021/06/14 14:02:26;;;;;;;781.88;731.63;;;28.90;99.90;;;;;;5115545;28;20499;-65
2021/06/14 14:04:52;;;;;;;895.03;833.67;;;29.10;99.90;;;;;;5115538;28;20166;-66
2021/06/14 14:07:18;;;;;;;726.28;681.10;;;29.50;99.90;;;;;;5115385;28;20173;-65
2021/06/14 14:09:44;;;;;;;589.97;555.22;;;29.50;99.90;;;;;;5115317;28;20202;-65
2021/06/14 14:12:10;;;;;;;449.33;426.25;;;29.30;99.90;;;;;;5114287;28;20173;-67
2021/06/14 14:14:37;;;;;;;711.50;667.13;;;28.80;99.90;;;;;;5115279;28;20235;-67
2021/06/14 14:17:03;;;;;;;775.90;726.22;;;28.70;99.90;;;;;;5115203;28;20288;-67
2021/06/14 14:19:35;;;;;;;747.50;700.38;;;28.80;99.90;;;;;;5115201;28;20190;-67
2021/06/14 14:22:03;;;;;;;859.67;801.50;;;28.90;99.90;;;;;;5114829;28;20162;-68
2021/06/14 14:24:29;;;;;;;714.67;670.53;;;29.10;99.90;;;;;;5114983;28;20589;-67
2021/06/14 14:26:57;;;;;;;595.67;560.83;;;29.50;99.90;;;;;;5115013;28;20169;-67
2021/06/14 14:29:24;;;;;;;715.88;671.55;;;29.60;99.90;;;;;;5114940;28;20171;-67
2021/06/14 14:31:55;;;;;;;775.88;726.65;;;29.80;99.90;;;;;;5114766;28;20237;-67
2021/06/14 14:34:30;;;;;;;719.78;674.50;;;30.00;99.90;;;;;;5114921;28;20167;-67
2021/06/14 14:36:56;;;;;;;735.80;689.55;;;30.30;99.90;;;;;;5114974;28;20169;-67
2021/06/14 14:39:29;;;;;;;508.88;481.13;;;30.40;99.90;;;;;;5114662;28;20198;-68
2021/06/14 14:41:55;;;;;;;524.15;495.15;;;30.50;99.90;;;;;;5114719;28;20158;-69
2021/06/14 14:44:23;;;;;;;557.20;525.55;;;30.40;99.90;;;;;;5114667;28;20171;-70
2021/06/14 14:46:50;;;;;;;636.42;598.17;;;30.30;99.90;;;;;;5114648;28;20642;-70
2021/06/14 14:49:21;;;;;;;578.00;544.65;;;30.00;99.90;;;;;;5114458;28;20214;-72
2021/06/14 14:51:46;;;;;;;618.78;582.42;;;29.90;99.90;;;;;;5114562;28;20162;-68
2021/06/14 14:54:17;;;;;;;600.92;565.80;;;29.80;99.90;;;;;;5114519;28;20175;-67
2021/06/14 14:56:43;;;;;;;629.97;592.03;;;29.90;99.90;;;;;;5114340;28;20194;-66
2021/06/14 14:59:09;;;;;;;738.05;691.85;;;30.00;99.90;;;;;;5114524;28;20194;-64
2021/06/14 15:01:37;;;;;;;739.15;692.95;;;29.90;99.90;;;;;;5114332;28;20169;-65
2021/06/14 15:04:03;;;;;;;778.20;727.78;;;30.10;99.90;;;;;;5114294;28;20250;-64
2021/06/14 15:06:29;;;;;;;753.67;706.08;;;30.30;99.90;;;;;;5114312;28;20467;-63
2021/06/14 15:08:55;;;;;;;661.28;620.97;;;30.40;99.90;;;;;;5114246;28;20173;-64
2021/06/14 15:11:21;;;;;;;750.45;703.40;;;30.40;99.90;;;;;;5114116;28;20476;-66
2021/06/14 15:13:47;;;;;;;588.60;554.45;;;30.70;99.90;;;;;;5114160;28;20171;-66
2021/06/14 15:16:13;;;;;;;602.67;566.83;;;30.90;99.90;;;;;;5114104;28;20166;-65
2021/06/14 15:18:39;;;;;;;870.75;811.53;;;30.90;99.90;;;;;;5113971;28;20269;-66
2021/06/14 15:21:04;;;;;;;573.80;540.40;;;31.00;99.90;;;;;;5113820;28;20220;-66
2021/06/14 15:23:32;;;;;;;812.45;759.22;;;31.10;98.40;;;;;;5113609;28;20186;-66
2021/06/14 15:25:58;;;;;;;533.67;503.83;;;31.00;99.30;;;;;;5113802;28;20245;-66
2021/06/14 15:28:24;;;;;;;812.85;759.75;;;30.70;96.40;;;;;;5113878;28;20681;-65
2021/06/14 15:30:55;;;;;;;710.50;666.35;;;30.50;97.20;;;;;;5113890;28;20220;-66
2021/06/14 15:33:22;;;;;;;1011.15;934.20;;;30.30;97.30;;;;;;5113895;28;20167;-66
2021/06/14 15:35:47;;;;;;;856.28;799.10;;;30.70;99.80;;;;;;5113810;28;20178;-66
2021/06/14 15:38:13;;;;;;;749.70;702.30;;;30.90;97.80;;;;;;5112364;28;20338;-66
2021/06/14 15:40:40;;;;;;;821.65;767.55;;;30.80;96.80;;;;;;5112489;28;20174;-65
2021/06/14 15:43:06;;;;;;;947.75;878.80;;;30.70;97.40;;;;;;5113772;28;20162;-66
2021/06/14 15:45:33;;;;;;;933.33;866.33;;;30.90;98.10;;;;;;5113309;28;20170;-66
2021/06/14 15:48:03;;;;;;;868.17;808.40;;;31.30;97.10;;;;;;5113464;28;20158;-66
2021/06/14 15:50:31;;;;;;;1014.35;936.70;;;31.50;95.70;;;;;;5113747;28;20173;-66
2021/06/14 15:52:56;;;;;;;893.22;832.30;;;31.60;95.90;;;;;;5113648;28;20167;-66
2021/06/14 15:55:23;;;;;;;686.92;644.35;;;31.80;93.70;;;;;;5112245;28;20501;-66
2021/06/14 15:57:49;;;;;;;763.15;714.15;;;31.80;93.60;;;;;;5112310;28;20194;-65
2021/06/14 16:00:16;;;;;;;680.60;638.80;;;31.90;93.20;;;;;;5113585;28;20232;-65
2021/06/14 16:02:43;;;;;;;739.20;692.67;;;32.00;92.80;;;;;;5113496;28;20178;-66
2021/06/14 16:05:10;;;;;;;797.28;745.53;;;32.00;93.10;;;;;;5113524;28;20161;-68
2021/06/14 16:07:36;;;;;;;792.83;741.75;;;31.90;92.20;;;;;;5113442;28;20182;-66
2021/06/14 16:10:04;;;;;;;840.67;784.33;;;31.80;92.10;;;;;;5113301;28;20170;-65
2021/06/14 16:12:29;;;;;;;1068.75;982.25;;;31.70;91.70;;;;;;5113480;28;20649;-65
2021/06/14 16:14:55;;;;;;;799.58;747.67;;;31.90;91.80;;;;;;5113374;28;20174;-65
2021/06/14 16:17:20;;;;;;;933.17;866.42;;;31.70;91.10;;;;;;5113499;28;20177;-64
2021/06/14 16:19:46;;;;;;;822.35;768.42;;;31.80;91.90;;;;;;5113318;28;20218;-64
2021/06/14 16:22:12;;;;;;;749.83;702.33;;;31.90;92.00;;;;;;5113363;28;20166;-64
2021/06/14 16:24:37;;;;;;;774.97;725.17;;;31.80;90.70;;;;;;5113327;28;20190;-64
2021/06/14 16:27:03;;;;;;;911.25;847.25;;;31.80;91.00;;;;;;5113413;28;20250;-64
2021/06/14 16:29:29;;;;;;;794.50;742.53;;;31.80;91.70;;;;;;5112978;28;20715;-64
2021/06/14 16:31:54;;;;;;;919.78;855.20;;;31.50;92.50;;;;;;5113271;28;20210;-64
2021/06/14 16:34:20;;;;;;;851.20;793.70;;;31.50;91.90;;;;;;5113267;28;20254;-64
2021/06/14 16:36:45;;;;;;;920.47;855.72;;;31.60;90.60;;;;;;5116460;28;20174;-64
2021/06/14 16:39:12;;;;;;;972.90;900.58;;;31.40;91.40;;;;;;5117020;28;20241;-64
2021/06/14 16:41:38;;;;;;;735.72;689.63;;;31.40;92.00;;;;;;5117076;28;20173;-64
2021/06/14 16:44:05;;;;;;;603.65;567.95;;;31.50;91.20;;;;;;5117044;28;20170;-64
2021/06/14 16:46:31;;;;;;;849.05;792.35;;;31.20;90.80;;;;;;5116942;28;20163;-64
2021/06/14 16:48:56;;;;;;;1057.43;972.53;;;31.20;91.20;;;;;;5116703;28;20271;-64
2021/06/14 16:51:22;;;;;;;767.05;718.35;;;31.60;92.40;;;;;;5116903;28;20254;-64
2021/06/14 16:53:48;;;;;;;901.13;838.85;;;31.70;90.50;;;;;;5116731;28;20578;-64
2021/06/14 16:56:13;;;;;;;890.30;829.47;;;31.70;91.20;;;;;;5116818;28;20166;-64
2021/06/14 16:58:39;;;;;;;1016.08;938.90;;;31.70;90.60;;;;;;5116608;28;20186;-64
2021/06/14 17:01:08;;;;;;;624.63;587.08;;;31.80;91.00;;;;;;5116751;28;20252;-64
2021/06/14 17:03:34;;;;;;;907.40;844.65;;;31.50;90.60;;;;;;5116631;28;20158;-64
2021/06/14 17:06:00;;;;;;;1028.25;948.90;;;31.70;90.30;;;;;;5116605;28;20639;-64
2021/06/14 17:08:25;;;;;;;1129.30;999.90;;;31.80;91.10;;;;;;5116640;28;20173;-64
2021/06/14 17:10:51;;;;;;;1136.55;999.90;;;31.80;90.90;;;;;;5116404;28;20170;-64
2021/06/14 17:13:17;;;;;;;1030.10;950.35;;;32.10;90.40;;;;;;5116280;28;20515;-64
2021/06/14 17:15:43;;;;;;;1012.75;936.22;;;32.10;91.10;;;;;;5116382;28;20245;-64
2021/06/14 17:18:10;;;;;;;732.17;686.38;;;32.20;90.90;;;;;;5116134;28;20186;-64
2021/06/14 17:20:36;;;;;;;1137.25;999.90;;;32.10;90.50;;;;;;5116136;28;20202;-64
2021/06/14 17:23:02;;;;;;;826.60;772.10;;;32.20;90.90;;;;;;5116170;28;20190;-66
2021/06/14 17:25:27;;;;;;;873.00;814.30;;;31.90;91.30;;;;;;5116201;28;20200;-66
2021/06/14 17:27:53;;;;;;;817.65;764.15;;;31.70;91.40;;;;;;5116155;28;20246;-64
2021/06/14 17:30:20;;;;;;;1028.43;948.73;;;31.60;91.10;;;;;;5115652;28;20359;-64
2021/06/14 17:32:47;;;;;;;851.75;794.72;;;31.70;91.70;;;;;;5114387;28;20507;-64
2021/06/14 17:35:15;;;;;;;1106.60;999.90;;;31.60;91.10;;;;;;5115746;28;20201;-64
2021/06/14 17:37:40;;;;;;;845.85;789.95;;;31.80;93.10;;;;;;5115889;28;20174;-64
2021/06/14 17:40:07;;;;;;;741.20;694.25;;;31.90;91.10;;;;;;5115756;28;20194;-64
2021/06/14 17:42:33;;;;;;;996.92;922.25;;;31.80;91.70;;;;;;5115860;28;20162;-64
2021/06/14 17:44:59;;;;;;;971.17;899.88;;;31.60;92.30;;;;;;5115685;28;20622;-64
2021/06/14 17:47:25;;;;;;;778.95;728.92;;;31.40;92.90;;;;;;5115574;28;20171;-65
2021/06/14 17:49:50;;;;;;;924.15;859.50;;;31.00;92.10;;;;;;5115510;28;20659;-66
2021/06/14 17:52:16;;;;;;;693.60;650.20;;;30.90;92.50;;;;;;5115484;28;25109;-64
2021/06/14 17:54:42;;;;;;;883.05;821.53;;;30.70;92.50;;;;;;5115484;28;20627;-65
2021/06/14 17:57:07;;;;;;;867.53;808.00;;;30.70;93.40;;;;;;5115445;28;20177;-65
2021/06/14 17:59:33;;;;;;;901.83;838.92;;;30.80;92.50;;;;;;5115391;28;20202;-64
2021/06/14 18:02:02;;;;;;;884.33;823.60;;;30.70;93.20;;;;;;5114104;28;20163;-64
2021/06/14 18:04:28;;;;;;;991.47;916.58;;;30.80;93.10;;;;;;5114101;28;20171;-65
2021/06/14 18:06:54;;;;;;;973.17;901.00;;;30.90;93.60;;;;;;5115323;28;20211;-65
2021/06/14 18:09:19;;;;;;;957.83;888.47;;;30.90;93.30;;;;;;5115343;28;20170;-65
2021/06/14 18:11:45;;;;;;;1150.85;999.90;;;30.80;93.00;;;;;;5115063;28;25102;-65
2021/06/14 18:14:11;;;;;;;1090.97;997.85;;;30.90;93.90;;;;;;5115252;28;20169;-65
2021/06/14 18:16:38;;;;;;;1160.95;999.90;;;31.00;94.00;;;;;;5115049;28;20525;-65
2021/06/14 18:19:04;;;;;;;947.85;879.63;;;30.90;93.20;;;;;;5114913;28;20214;-65
2021/06/14 18:21:31;;;;;;;959.00;889.45;;;30.60;93.50;;;;;;5114994;28;20295;-65
2021/06/14 18:23:57;;;;;;;936.97;870.20;;;30.50;93.80;;;;;;5114838;28;20191;-65
2021/06/14 18:26:24;;;;;;;917.78;853.35;;;30.30;94.80;;;;;;5114923;28;20170;-65
2021/06/14 18:28:50;;;;;;;1139.20;999.90;;;30.10;95.10;;;;;;5113402;28;20174;-65
2021/06/14 18:31:18;;;;;;;907.13;843.38;;;30.10;95.60;;;;;;5114437;28;20170;-65
2021/06/14 18:33:43;;;;;;;1208.38;999.90;;;30.10;95.20;;;;;;5114800;28;20311;-65
2021/06/14 18:36:09;;;;;;;1225.78;999.90;;;30.30;96.20;;;;;;5114749;28;20261;-65
2021/06/14 18:38:36;;;;;;;1252.75;999.90;;;30.50;96.30;;;;;;5114510;28;20190;-65
2021/06/14 18:41:11;;;;;;;1272.65;999.90;;;30.60;96.60;;;;;;5114472;28;20185;-65
2021/06/14 18:43:39;;;;;;;1252.03;999.90;;;30.80;96.20;;;;;;5114646;28;20235;-65
2021/06/14 18:46:05;;;;;;;1265.53;999.90;;;30.60;95.70;;;;;;5114483;28;20171;-65
2021/06/14 18:48:31;;;;;;;1178.38;999.90;;;30.60;95.80;;;;;;5113004;28;20221;-65
2021/06/14 18:50:58;;;;;;;1233.32;999.90;;;30.60;95.60;;;;;;5114494;28;20196;-65
2021/06/14 18:53:24;;;;;;;1230.72;999.90;;;30.60;95.80;;;;;;5114427;28;20159;-65
2021/06/14 18:55:50;;;;;;;1226.68;999.90;;;30.50;96.00;;;;;;5114396;28;20223;-65
2021/06/14 18:58:16;;;;;;;1241.20;999.90;;;30.30;96.40;;;;;;5112395;28;20186;-64
2021/06/14 19:00:42;;;;;;;1258.03;999.90;;;30.10;97.10;;;;;;5114283;28;20158;-65
2021/06/14 19:03:11;;;;;;;1220.97;999.90;;;30.00;96.90;;;;;;5114291;28;20209;-65
2021/06/14 19:05:38;;;;;;;1226.38;999.90;;;29.70;96.60;;;;;;5114252;28;20523;-65
2021/06/14 19:08:04;;;;;;;1252.97;999.90;;;29.40;97.90;;;;;;5114020;28;20212;-64
2021/06/14 19:10:30;;;;;;;1242.45;999.90;;;29.00;98.60;;;;;;5114077;28;20662;-66
2021/06/14 19:12:56;;;;;;;1264.78;999.90;;;28.60;98.40;;;;;;5114041;28;20167;-66
2021/06/14 19:15:22;;;;;;;1257.22;999.90;;;28.20;99.90;;;;;;5114049;28;20163;-66
2021/06/14 19:17:49;;;;;;;1343.45;999.90;;;27.70;99.90;;;;;;5114073;28;20241;-66
2021/06/14 19:20:16;;;;;;;1358.25;999.90;;;27.40;99.90;;;;;;5113923;28;20194;-66
